Spelter City, Oklahoma
Current Conditions -  °F | °C
As of 1:15 PM on Tuesday 21 Oct 2014 (Local Time) from KOKM Reporting Station
Clear Clear  
Wind Chill: 77°   Ceiling: Unl
Heat Index: 79°   Visibility: 10mi
Dew Point: 61°   Wind: 7mph
Humidity: 58%   Direction: 270°W
Pressure: 30.08"   Gusts: NA
Location:  35.4729°N, 95.9709°W
Report Text: KOKM 211815Z AUTO 27006KT 10SM CLR 25/16 A3008 RMK AO2 T02490160
Loading
Personal Weather Stations






























Interactive Weather Map New forecast layout! Learn more

10-Day Weather Forecast

Advertisements
Track Severe Weather on mobile